Time;durP1;ratioP1;P1;durP2;ratioP2;P2;SDS_P1;SDS_P2;PMS_P1;PMS_P2;Temp;Humidity;BMP_temperature;BMP_pressure;BME280_temperature;BME280_humidity;BME280_pressure;Samples;Min_cycle;Max_cycle;Signal;HPM_P1;HPM_P2
2022/06/12 00:00:19;;;;;;;658.03;611.57;;;;;;;22.53;48.30;101649.84;694301;28;46293;-67
2022/06/12 00:00:41;;;;;;;646.83;603.45;;;;;;;22.52;48.18;101653.66;691885;28;116151;-67
2022/06/12 00:01:03;;;;;;;662.60;616.45;;;;;;;22.47;48.33;101642.53;693783;28;45184;-66
2022/06/12 00:01:26;;;;;;;658.83;612.88;;;;;;;22.50;48.25;101648.38;694127;28;36604;-66
2022/06/12 00:01:48;;;;;;;639.80;596.85;;;;;;;22.47;48.34;101639.75;692111;28;69188;-66
2022/06/12 00:02:09;;;;;;;653.53;608.40;;;;;;;22.50;48.37;101653.06;694344;28;46289;-67
2022/06/12 00:02:30;;;;;;;656.95;610.80;;;;;;;22.48;48.30;101647.78;694491;28;21542;-66
2022/06/12 00:02:51;;;;;;;663.28;614.17;;;;;;;22.48;48.43;101649.72;694387;28;21511;-67
2022/06/12 00:03:17;;;;;;;660.30;611.10;;;;;;;22.47;48.28;101651.59;694685;28;23478;-66
2022/06/12 00:03:39;;;;;;;656.40;609.08;;;;;;;22.47;48.17;101656.28;690946;28;137834;-67
2022/06/12 00:04:00;;;;;;;656.55;609.25;;;;;;;22.47;48.24;101657.09;693887;28;46240;-66
2022/06/12 00:04:22;;;;;;;672.92;621.78;;;;;;;22.48;48.35;101650.53;694684;28;22446;-67
2022/06/12 00:04:44;;;;;;;670.15;618.95;;;;;;;22.47;48.11;101651.59;693680;28;14503;-66
2022/06/12 00:05:06;;;;;;;679.50;626.08;;;;;;;22.45;48.53;101650.19;694133;28;45246;-67
2022/06/12 00:05:30;;;;;;;676.63;621.05;;;;;;;22.45;48.31;101653.75;693531;28;46205;-67
2022/06/12 00:05:54;;;;;;;673.80;620.00;;;;;;;22.44;48.62;101651.25;690918;28;113387;-67
2022/06/12 00:06:18;;;;;;;665.28;617.55;;;;;;;22.41;48.49;101654.47;692429;28;92090;-68
2022/06/12 00:06:42;;;;;;;661.25;615.40;;;;;;;22.42;48.38;101659.72;692751;28;69464;-66
2022/06/12 00:07:04;;;;;;;660.65;615.33;;;;;;;22.41;48.86;101659.97;692216;28;92427;-66
2022/06/12 00:07:25;;;;;;;653.22;610.25;;;;;;;22.40;48.47;101661.03;693568;28;46199;-66
2022/06/12 00:07:46;;;;;;;649.63;606.88;;;;;;;22.37;48.54;101654.09;694503;28;22201;-66
2022/06/12 00:08:09;;;;;;;661.67;616.22;;;;;;;22.36;48.79;101654.34;695002;28;21302;-67
2022/06/12 00:08:31;;;;;;;658.13;612.45;;;;;;;22.35;48.74;101655.41;692967;28;69386;-67
2022/06/12 00:08:55;;;;;;;653.65;609.33;;;;;;;22.35;48.87;101652.66;692892;28;69175;-66
2022/06/12 00:09:17;;;;;;;653.50;609.28;;;;;;;22.29;48.88;101646.16;693306;28;68660;-66
2022/06/12 00:09:39;;;;;;;657.40;612.92;;;;;;;22.31;48.74;101652.28;693436;28;44136;-68
2022/06/12 00:10:00;;;;;;;658.40;612.78;;;;;;;22.30;48.82;101650.59;694008;28;46183;-67
2022/06/12 00:10:21;;;;;;;660.47;613.63;;;;;;;22.29;48.84;101648.91;694799;28;22483;-66
2022/06/12 00:10:46;;;;;;;597.15;558.28;;;;;;;22.28;48.77;101647.22;694539;28;21570;-66
2022/06/12 00:11:10;;;;;;;389.08;370.48;;;;;;;22.28;49.04;101645.28;691916;28;115220;-67
2022/06/12 00:11:34;;;;;;;209.27;200.60;;;;;;;22.28;48.97;101650.78;692141;28;92125;-66
2022/06/12 00:11:56;;;;;;;247.93;237.65;;;;;;;22.28;49.01;101649.97;692209;28;92961;-66
2022/06/12 00:12:18;;;;;;;451.05;428.98;;;;;;;22.27;48.93;101656.53;694579;28;22384;-68
2022/06/12 00:12:42;;;;;;;479.48;454.92;;;;;;;22.25;48.92;101648.50;692647;28;70086;-67
2022/06/12 00:13:03;;;;;;;443.92;422.55;;;;;;;22.26;49.08;101652.13;692333;28;90855;-67
2022/06/12 00:13:28;;;;;;;470.10;446.13;;;;;;;22.24;49.40;101646.84;694040;28;47234;-67
2022/06/12 00:13:53;;;;;;;591.25;554.70;;;;;;;22.26;49.06;101654.88;691986;28;92354;-66
2022/06/12 00:14:15;;;;;;;647.00;597.03;;;;;;;22.25;48.98;101656.75;689449;28;138735;-66
2022/06/12 00:14:37;;;;;;;648.65;595.28;;;;;;;22.25;49.11;101654.00;693500;28;22590;-67
2022/06/12 00:14:59;;;;;;;652.05;595.85;;;;;;;22.25;49.12;101645.75;694138;28;44264;-67
2022/06/12 00:15:24;;;;;;;655.20;598.90;;;;;;;22.24;49.08;101649.59;693764;28;46287;-67
2022/06/12 00:15:45;;;;;;;656.05;600.70;;;;;;;22.22;49.48;101645.41;691534;28;115235;-66
2022/06/12 00:16:09;;;;;;;655.40;602.30;;;;;;;22.24;49.32;101654.25;694872;28;22389;-67
2022/06/12 00:16:33;;;;;;;660.65;606.95;;;;;;;22.22;49.42;101651.72;692403;28;92603;-66
2022/06/12 00:16:55;;;;;;;653.03;603.22;;;;;;;22.23;49.39;101655.34;691608;28;92267;-66
2022/06/12 00:17:17;;;;;;;655.97;609.97;;;;;;;22.23;49.16;101650.66;693967;28;47429;-66
2022/06/12 00:17:38;;;;;;;660.30;612.75;;;;;;;22.21;49.47;101649.22;694285;28;45385;-67
2022/06/12 00:18:00;;;;;;;661.30;611.83;;;;;;;22.20;49.57;101651.13;695152;28;22249;-66
2022/06/12 00:18:21;;;;;;;662.75;611.25;;;;;;;22.24;49.23;101657.00;693720;28;44684;-66
2022/06/12 00:18:43;;;;;;;670.50;617.55;;;;;;;22.25;49.31;101650.44;695009;28;22398;-66
2022/06/12 00:19:05;;;;;;;670.97;615.00;;;;;;;22.24;49.21;101657.84;693863;28;46314;-67
2022/06/12 00:19:26;;;;;;;670.97;615.47;;;;;;;22.23;49.18;101649.84;695426;28;1108;-66
2022/06/12 00:19:49;;;;;;;640.65;598.10;;;;;;;22.24;49.33;101648.75;693136;28;44449;-66
2022/06/12 00:20:14;;;;;;;630.30;591.08;;;;;;;22.24;49.42;101657.00;692925;28;69436;-67
2022/06/12 00:20:36;;;;;;;648.55;605.17;;;;;;;22.22;49.49;101651.72;692287;28;90451;-66
2022/06/12 00:21:10;;;;;;;664.22;616.95;;;;;;;22.22;49.29;101657.22;693400;28;69221;-66
2022/06/12 00:21:32;;;;;;;666.90;615.90;;;;;;;22.21;49.47;101657.47;690197;28;138646;-67
2022/06/12 00:21:54;;;;;;;491.38;462.27;;;;;;;22.18;49.37;101650.53;694673;28;22239;-66
2022/06/12 00:22:15;;;;;;;453.85;432.30;;;;;;;22.14;49.71;101649.31;694316;28;46283;-66
2022/06/12 00:22:36;;;;;;;528.80;500.47;;;;;;;22.17;49.50;101654.34;693960;28;46293;-67
2022/06/12 00:22:58;;;;;;;587.47;553.80;;;;;;;22.16;49.45;101651.81;694515;28;44378;-67
2022/06/12 00:23:21;;;;;;;619.58;581.05;;;;;;;22.16;49.45;101640.81;693707;28;46289;-67
2022/06/12 00:23:45;;;;;;;666.17;615.88;;;;;;;22.14;49.54;101644.63;694050;28;44399;-66
2022/06/12 00:24:09;;;;;;;665.85;613.03;;;;;;;22.11;49.63;101644.25;692003;28;115243;-67
2022/06/12 00:24:32;;;;;;;641.28;598.80;;;;;;;22.12;49.64;101648.72;691468;28;115140;-66
2022/06/12 00:24:53;;;;;;;622.90;583.90;;;;;;;22.10;49.83;101646.19;692854;28;46314;-67
2022/06/12 00:25:15;;;;;;;573.28;540.42;;;;;;;22.10;49.48;101646.19;694763;28;23559;-67
2022/06/12 00:25:36;;;;;;;563.88;533.00;;;;;;;22.08;49.97;101648.31;694323;28;46442;-66
2022/06/12 00:25:59;;;;;;;610.35;573.00;;;;;;;22.09;49.75;101647.25;694406;28;44383;-66
2022/06/12 00:26:25;;;;;;;663.10;617.97;;;;;;;22.08;49.83;101645.56;693597;28;44396;-67
2022/06/12 00:26:50;;;;;;;658.90;615.25;;;;;;;22.07;49.47;101652.16;689648;28;161084;-67
2022/06/12 00:27:12;;;;;;;663.33;619.63;;;;;;;22.07;49.80;101648.53;691216;28;114800;-66
2022/06/12 00:27:34;;;;;;;675.40;629.33;;;;;;;22.05;49.80;101650.69;693963;28;46395;-66
2022/06/12 00:27:55;;;;;;;681.17;632.33;;;;;;;22.03;49.67;101636.34;694794;28;22418;-67
2022/06/12 00:28:16;;;;;;;688.47;639.28;;;;;;;22.04;49.72;101649.03;693820;28;45612;-67
2022/06/12 00:28:38;;;;;;;696.92;644.72;;;;;;;22.04;50.04;101646.28;694572;28;21349;-67
2022/06/12 00:29:02;;;;;;;703.95;652.15;;;;;;;22.02;50.14;101646.50;693906;28;45258;-67
2022/06/12 00:29:26;;;;;;;678.00;635.30;;;;;;;22.00;50.08;101645.06;692220;28;93099;-66
2022/06/12 00:29:50;;;;;;;700.95;651.60;;;;;;;22.01;49.90;101647.56;691556;28;92150;-67
2022/06/12 00:30:19;;;;;;;655.90;614.60;;;;;;;21.96;49.82;101645.53;693073;28;69433;-67
2022/06/12 00:30:40;;;;;;;571.00;535.35;;;;;;;22.01;50.12;101644.00;690401;28;137362;-68
2022/06/12 00:31:02;;;;;;;405.17;387.45;;;;;;;22.00;50.27;101648.63;694946;28;23384;-66
2022/06/12 00:31:24;;;;;;;540.55;507.50;;;;;;;22.01;50.09;101646.75;694513;28;23305;-66
2022/06/12 00:31:49;;;;;;;680.67;634.50;;;;;;;21.99;49.91;101649.72;693238;28;69273;-67
2022/06/12 00:32:12;;;;;;;687.85;636.28;;;;;;;22.00;50.03;101650.56;691770;28;114647;-66
2022/06/12 00:32:35;;;;;;;690.42;633.75;;;;;;;22.00;50.25;101645.88;693126;28;67543;-66
2022/06/12 00:32:56;;;;;;;654.70;609.88;;;;;;;21.99;50.16;101643.38;692914;28;69409;-66
2022/06/12 00:33:17;;;;;;;614.13;579.13;;;;;;;21.99;50.19;101654.38;694757;28;22432;-67
2022/06/12 00:33:39;;;;;;;646.85;605.15;;;;;;;21.98;50.28;101644.47;694186;28;46093;-67
2022/06/12 00:34:03;;;;;;;689.88;635.30;;;;;;;21.96;50.29;101647.44;695077;28;22303;-66
2022/06/12 00:34:29;;;;;;;605.83;568.58;;;;;;;21.93;50.32;101640.47;692003;28;92118;-66
2022/06/12 00:34:52;;;;;;;633.35;593.63;;;;;;;21.94;50.16;101650.41;689711;28;136483;-67
2022/06/12 00:35:15;;;;;;;578.40;545.25;;;;;;;21.94;50.41;101642.16;692219;28;90735;-66
2022/06/12 00:35:37;;;;;;;543.10;514.38;;;;;;;21.92;50.14;101640.72;693420;28;68306;-66
2022/06/12 00:35:58;;;;;;;541.00;512.50;;;;;;;21.91;50.26;101644.53;693625;28;45223;-66
2022/06/12 00:36:20;;;;;;;612.13;575.88;;;;;;;21.89;50.35;101642.00;694510;28;22412;-67
2022/06/12 00:36:42;;;;;;;600.45;565.35;;;;;;;21.85;50.32;101640.81;693263;28;44504;-67
2022/06/12 00:37:05;;;;;;;543.60;515.40;;;;;;;21.86;50.43;101647.97;693671;28;46364;-67
2022/06/12 00:37:27;;;;;;;540.05;511.95;;;;;;;21.85;50.41;101648.19;692750;28;67504;-68
2022/06/12 00:37:48;;;;;;;580.70;548.08;;;;;;;21.84;50.56;101643.78;693749;28;45240;-67
2022/06/12 00:38:10;;;;;;;568.25;537.15;;;;;;;21.83;50.45;101642.09;695195;28;21526;-67
2022/06/12 00:38:31;;;;;;;606.42;570.95;;;;;;;21.82;50.65;101645.91;693791;28;44136;-67
2022/06/12 00:38:53;;;;;;;618.47;580.75;;;;;;;21.80;50.46;101645.31;694900;28;21224;-67
2022/06/12 00:39:15;;;;;;;635.75;595.25;;;;;;;21.78;50.68;101642.78;694727;28;21538;-66
2022/06/12 00:39:37;;;;;;;442.02;418.17;;;;;;;21.76;50.73;101643.00;693368;28;46224;-66
2022/06/12 00:39:58;;;;;;;398.35;379.63;;;;;;;21.75;50.70;101638.56;693655;28;67451;-66
2022/06/12 00:40:20;;;;;;;496.70;472.13;;;;;;;21.77;50.83;101643.84;693599;28;47186;-66
2022/06/12 00:40:41;;;;;;;540.67;512.22;;;;;;;21.76;50.64;101642.19;693812;28;45269;-66
2022/06/12 00:41:03;;;;;;;552.83;523.08;;;;;;;21.75;50.80;101638.56;695039;28;21521;-66
2022/06/12 00:41:25;;;;;;;617.28;580.15;;;;;;;21.75;50.88;101640.50;694624;28;22407;-66
2022/06/12 00:41:50;;;;;;;646.05;604.83;;;;;;;21.74;50.85;101641.53;693449;28;45285;-68
2022/06/12 00:42:21;;;;;;;643.72;602.47;;;;;;;21.70;50.94;101638.44;691792;28;114927;-67
2022/06/12 00:42:44;;;;;;;618.92;580.47;;;;;;;21.69;51.15;101645.00;690646;28;137361;-66
2022/06/12 00:43:07;;;;;;;603.25;567.90;;;;;;;21.67;50.98;101638.88;692572;28;92307;-67
2022/06/12 00:43:31;;;;;;;635.22;595.58;;;;;;;21.67;51.01;101640.81;692917;28;69229;-66
2022/06/12 00:43:53;;;;;;;652.88;609.38;;;;;;;21.64;50.95;101641.25;692429;28;93075;-66
2022/06/12 00:44:18;;;;;;;673.78;625.70;;;;;;;21.62;50.95;101635.16;694169;28;45224;-67
2022/06/12 00:44:42;;;;;;;670.67;624.08;;;;;;;21.63;51.17;101637.69;690889;28;113415;-66
2022/06/12 00:45:30;;;;;;;674.50;630.97;;;;;;;21.64;51.08;101644.00;692340;28;90324;-67
2022/06/12 00:45:54;;;;;;;686.63;639.50;;;;;;;21.55;51.17;101633.31;690311;28;137575;-67
2022/06/12 00:46:35;;;;;;;666.63;622.90;;;;;;;21.62;51.04;101638.75;692409;28;92079;-66
2022/06/12 00:46:59;;;;;;;661.58;619.42;;;;;;;21.65;50.96;101648.44;689601;28;138248;-66
2022/06/12 00:47:21;;;;;;;643.03;603.03;;;;;;;21.65;51.14;101645.69;692829;28;67600;-66
2022/06/12 00:47:42;;;;;;;582.25;550.75;;;;;;;21.65;51.06;101646.53;692807;28;69085;-66
2022/06/12 00:48:07;;;;;;;540.45;512.28;;;;;;;21.65;51.13;101642.97;695243;28;23442;-67
2022/06/12 00:48:30;;;;;;;542.88;514.78;;;;;;;21.65;51.05;101649.28;691978;28;92175;-67
2022/06/12 00:48:52;;;;;;;620.95;584.08;;;;;;;21.66;50.89;101647.38;692913;28;67468;-67
2022/06/12 00:49:17;;;;;;;633.88;593.90;;;;;;;21.66;51.15;101641.88;694302;28;45269;-66
2022/06/12 00:49:41;;;;;;;646.63;604.13;;;;;;;21.67;51.03;101649.06;690717;28;115252;-67
2022/06/12 00:50:05;;;;;;;667.33;614.45;;;;;;;21.66;51.18;101642.72;692142;28;92311;-66
2022/06/12 00:50:27;;;;;;;674.85;619.97;;;;;;;21.69;51.11;101644.16;691996;28;91232;-66
2022/06/12 00:50:52;;;;;;;681.85;631.58;;;;;;;21.66;51.00;101642.72;693313;28;46406;-67
2022/06/12 00:51:15;;;;;;;700.10;646.20;;;;;;;21.70;51.19;101643.09;691705;28;114897;-67
2022/06/12 00:51:38;;;;;;;657.33;613.45;;;;;;;21.70;51.06;101648.59;693154;28;67455;-66
2022/06/12 00:52:03;;;;;;;674.33;625.78;;;;;;;21.69;51.20;101644.16;693257;28;69489;-66
2022/06/12 00:52:28;;;;;;;642.60;601.92;;;;;;;21.69;51.15;101646.91;691214;28;113667;-66
2022/06/12 00:52:51;;;;;;;665.63;620.83;;;;;;;21.68;51.13;101643.31;690541;28;138880;-67
2022/06/12 00:53:18;;;;;;;651.72;606.33;;;;;;;21.68;51.04;101642.50;693382;28;69303;-66
2022/06/12 00:53:44;;;;;;;589.42;553.28;;;;;;;21.66;51.06;101639.13;690874;28;138634;-67
2022/06/12 00:54:06;;;;;;;665.42;619.20;;;;;;;21.65;51.32;101640.22;691013;28;137764;-67
2022/06/12 00:54:29;;;;;;;680.47;632.03;;;;;;;21.64;51.12;101644.00;693694;28;46368;-67
2022/06/12 00:54:53;;;;;;;682.58;633.13;;;;;;;21.61;51.29;101642.53;692070;28;68141;-67
2022/06/12 00:55:18;;;;;;;678.33;628.50;;;;;;;21.61;51.27;101645.28;692443;28;92312;-66
2022/06/12 00:55:43;;;;;;;681.45;631.53;;;;;;;21.59;51.37;101645.53;691747;28;114561;-67
2022/06/12 00:56:11;;;;;;;685.28;633.92;;;;;;;21.57;51.35;101639.44;691243;28;115113;-67
2022/06/12 00:56:35;;;;;;;676.85;626.08;;;;;;;21.55;51.42;101641.56;689612;28;161182;-66
2022/06/12 00:56:59;;;;;;;672.25;621.42;;;;;;;21.49;51.32;101636.13;690636;28;115209;-66
2022/06/12 00:57:22;;;;;;;678.20;627.33;;;;;;;21.52;51.59;101639.28;691140;28;115274;-66
2022/06/12 00:57:45;;;;;;;682.58;629.90;;;;;;;21.50;51.54;101638.66;693423;28;46330;-66
2022/06/12 00:58:10;;;;;;;692.15;640.85;;;;;;;21.49;51.58;101637.00;693264;28;67487;-66
2022/06/12 00:58:36;;;;;;;700.90;650.45;;;;;;;21.48;51.54;101643.50;690658;28;136673;-66
2022/06/12 00:59:02;;;;;;;698.90;647.03;;;;;;;21.48;51.50;101649.00;690926;28;136601;-65
2022/06/12 00:59:33;;;;;;;695.75;644.17;;;;;;;21.48;51.55;101639.94;690177;28;137602;-66
2022/06/12 00:59:57;;;;;;;696.90;647.17;;;;;;;21.46;51.57;101645.66;689036;28;156435;-66
2022/06/12 01:00:19;;;;;;;699.17;650.03;;;;;;;21.45;51.74;101638.47;692276;28;91543;-66
2022/06/12 01:00:41;;;;;;;690.47;643.75;;;;;;;21.42;51.92;101642.50;694946;28;22367;-66
2022/06/12 01:01:05;;;;;;;685.15;635.45;;;;;;;21.42;51.85;101637.00;693738;28;46232;-66
2022/06/12 01:01:31;;;;;;;689.45;638.30;;;;;;;21.41;51.79;101640.84;692143;28;92276;-67
2022/06/12 01:01:53;;;;;;;704.70;655.30;;;;;;;21.42;51.76;101639.75;688526;28;137957;-68
2022/06/12 01:02:19;;;;;;;710.90;664.40;;;;;;;21.41;51.69;101640.84;692613;28;43819;-66
2022/06/12 01:02:42;;;;;;;696.92;652.10;;;;;;;21.41;51.74;101639.97;690688;28;138121;-66
2022/06/12 01:03:03;;;;;;;697.40;650.67;;;;;;;21.41;51.66;101639.97;693031;28;69225;-66
2022/06/12 01:03:25;;;;;;;693.67;646.72;;;;;;;21.38;51.85;101638.56;694424;28;22373;-66
2022/06/12 01:06:36;;;;;;;277.73;265.63;;;;;;;21.37;51.98;101636.03;690243;28;137682;-66
2022/06/12 01:07:00;;;;;;;265.23;253.98;;;;;;;21.37;52.06;101638.78;690535;28;136052;-67
2022/06/12 01:07:23;;;;;;;469.70;447.53;;;;;;;21.36;51.95;101635.19;691844;28;90740;-66
2022/06/12 01:07:48;;;;;;;657.13;616.75;;;;;;;21.35;51.83;101635.44;692100;28;92271;-66
2022/06/12 01:08:09;;;;;;;644.90;605.23;;;;;;;21.37;51.95;101638.78;691776;28;115591;-66
2022/06/12 01:08:31;;;;;;;450.45;425.88;;;;;;;21.36;51.48;101632.44;693790;28;46346;-67
2022/06/12 01:08:53;;;;;;;500.05;474.92;;;;;;;21.36;51.81;101635.19;693724;28;44399;-66
2022/06/12 01:09:17;;;;;;;662.67;622.20;;;;;;;21.36;51.88;101637.09;695139;28;22313;-68
2022/06/12 01:09:41;;;;;;;711.67;664.80;;;;;;;21.36;51.94;101637.94;691178;28;90671;-66
2022/06/12 01:10:06;;;;;;;555.67;522.85;;;;;;;21.37;51.89;101634.09;692465;28;91804;-66
2022/06/12 01:10:29;;;;;;;483.55;460.65;;;;;;;21.37;51.86;101636.84;690263;28;138167;-67
2022/06/12 01:10:53;;;;;;;546.10;518.67;;;;;;;21.37;52.01;101636.03;693239;28;68309;-66
2022/06/12 01:11:15;;;;;;;564.17;535.50;;;;;;;21.37;51.86;101636.03;692685;28;92304;-66
2022/06/12 01:11:39;;;;;;;540.80;513.58;;;;;;;21.39;52.05;101642.13;694044;28;46336;-66
2022/06/12 01:12:05;;;;;;;478.15;454.73;;;;;;;21.37;52.03;101636.84;690698;28;90119;-67
2022/06/12 01:12:32;;;;;;;439.10;418.73;;;;;;;21.38;51.85;101637.72;690023;28;135826;-66
2022/06/12 01:12:56;;;;;;;498.75;474.90;;;;;;;21.37;51.91;101639.59;689711;28;138775;-65
2022/06/12 01:13:21;;;;;;;302.60;289.90;;;;;;;21.38;52.10;101640.47;691249;28;90190;-65
2022/06/12 01:13:44;;;;;;;411.30;393.23;;;;;;;21.35;51.95;101636.25;690085;28;113558;-65
2022/06/12 01:14:08;;;;;;;380.15;363.80;;;;;;;21.35;52.03;101636.25;693308;28;69263;-65
2022/06/12 01:14:32;;;;;;;312.05;298.75;;;;;;;21.35;52.12;101635.44;692013;28;91875;-67
2022/06/12 01:14:59;;;;;;;272.92;261.65;;;;;;;21.33;52.07;101627.41;690957;28;93808;-65
2022/06/12 01:15:23;;;;;;;322.47;308.83;;;;;;;21.26;52.07;101618.38;690565;28;138075;-68
2022/06/12 01:15:46;;;;;;;270.13;258.42;;;;;;;21.30;52.02;101627.00;692473;28;92203;-65
2022/06/12 01:16:11;;;;;;;173.80;166.45;;;;;;;21.33;52.18;101626.53;692662;28;90468;-66
2022/06/12 01:16:33;;;;;;;203.38;194.98;;;;;;;21.32;52.11;101631.22;692238;28;92366;-68
2022/06/12 01:16:56;;;;;;;140.80;134.73;;;;;;;21.31;52.10;101632.28;692482;28;67392;-70
2022/06/12 01:17:18;;;;;;;153.30;146.68;;;;;;;21.32;52.33;101627.63;693441;28;46345;-66
2022/06/12 01:17:40;;;;;;;107.22;102.60;;;;;;;21.32;52.23;101633.13;694045;28;46422;-64
2022/06/12 01:18:01;;;;;;;31.42;30.10;;;;;;;21.32;51.98;101630.38;694270;28;45277;-64
2022/06/12 01:18:27;;;;;;;0.98;0.98;;;;;;;21.32;51.95;101633.13;693835;28;46319;-65
2022/06/12 01:18:51;;;;;;;0.20;0.20;;;;;;;21.32;51.96;101633.13;691208;28;113412;-65
2022/06/12 01:19:18;;;;;;;0.30;0.30;;;;;;;21.24;51.93;101615.88;692471;28;92557;-66
2022/06/12 01:19:42;;;;;;;0.30;0.30;;;;;;;21.30;52.35;101627.88;689367;28;161431;-65
2022/06/12 01:20:09;;;;;;;0.40;0.40;;;;;;;21.31;52.18;101631.44;691816;28;113642;-66
2022/06/12 01:20:33;;;;;;;0.43;0.43;;;;;;;21.30;52.01;101630.59;689972;28;138021;-65
2022/06/12 01:21:05;;;;;;;0.50;0.50;;;;;;;21.30;52.14;101630.59;691849;28;92274;-65
2022/06/12 01:21:48;;;;;;;0.60;0.60;;;;;;;21.31;52.10;101625.94;690690;28;137805;-68
2022/06/12 01:22:39;;;;;;;0.70;0.70;;;;;;;21.34;52.22;101630.97;690043;28;161642;-65
2022/06/12 01:23:36;;;;;;;0.80;0.80;;;;;;;21.35;52.23;101633.50;691150;28;135832;-65
2022/06/12 01:24:10;;;;;;;4.90;4.75;;;;;;;21.36;52.21;101626.09;690080;28;160512;-65
2022/06/12 01:25:13;;;;;;;31.77;30.42;;;;;;;21.37;52.36;101627.78;690566;28;137687;-65
2022/06/12 01:26:00;;;;;;;553.88;524.13;;;;;;;21.30;52.13;101622.38;686050;28;157113;-65
2022/06/12 01:26:37;;;;;;;675.80;630.10;;;;;;;21.33;52.38;101630.16;690881;28;137723;-65
2022/06/12 01:27:34;;;;;;;701.80;651.30;;;;;;;21.31;52.33;101632.28;690866;28;137847;-66
2022/06/12 01:28:23;;;;;;;691.80;644.50;;;;;;;21.29;52.41;101628.09;690305;28;160277;-65
2022/06/12 01:28:47;;;;;;;698.95;650.47;;;;;;;21.27;52.42;101635.69;691329;28;137235;-69
2022/06/12 01:29:16;;;;;;;701.97;653.15;;;;;;;21.23;52.59;101630.66;693287;28;67811;-67
2022/06/12 01:29:46;;;;;;;691.80;644.50;;;;;;;21.22;52.43;101625.38;692580;28;60985;-65
2022/06/12 01:30:15;;;;;;;683.45;639.15;;;;;;;21.24;52.47;101626.03;694209;28;60315;-65
2022/06/12 01:30:42;;;;;;;685.85;642.22;;;;;;;21.19;52.62;101621.22;691494;28;136426;-64
2022/06/12 01:31:12;;;;;;;697.08;650.17;;;;;;;21.20;52.38;101625.63;691773;28;137582;-65
2022/06/12 01:31:40;;;;;;;701.47;655.30;;;;;;;21.19;52.42;101626.69;690916;28;138303;-66
2022/06/12 01:32:05;;;;;;;678.83;636.80;;;;;;;21.21;52.57;101629.22;693668;28;88218;-68
2022/06/12 01:32:32;;;;;;;694.13;649.17;;;;;;;21.20;52.56;101631.09;693091;28;93125;-64
2022/06/12 01:32:59;;;;;;;704.38;657.85;;;;;;;21.18;52.50;101618.69;691156;28;137927;-65
2022/06/12 01:33:26;;;;;;;698.28;653.00;;;;;;;21.19;52.71;101632.19;691519;28;126790;-65
2022/06/12 01:33:54;;;;;;;681.45;637.58;;;;;;;21.18;52.85;101625.00;691024;28;137678;-70
2022/06/12 01:34:28;;;;;;;699.55;651.80;;;;;;;21.21;52.93;101631.97;691413;28;137599;-68
2022/06/12 01:34:52;;;;;;;706.00;657.10;;;;;;;21.20;52.75;101625.63;690000;28;160624;-68
2022/06/12 01:35:21;;;;;;;707.58;655.60;;;;;;;21.21;52.81;101624.56;692344;28;113573;-66
2022/06/12 01:35:47;;;;;;;709.53;659.33;;;;;;;21.22;52.67;101631.75;690943;28;138835;-65
2022/06/12 01:36:11;;;;;;;698.25;650.95;;;;;;;21.22;52.81;101630.88;690800;28;159305;-66
2022/06/12 01:36:38;;;;;;;704.55;655.78;;;;;;;21.21;52.71;101623.72;691869;28;114707;-66
2022/06/12 01:37:24;;;;;;;709.65;661.05;;;;;;;21.22;52.76;101633.63;691261;28;138035;-66
2022/06/12 01:37:50;;;;;;;716.30;665.38;;;;;;;21.20;52.93;101625.63;689995;28;161360;-66
2022/06/12 01:38:17;;;;;;;709.83;657.90;;;;;;;21.21;52.86;101624.56;691803;28;136562;-66
2022/06/12 01:38:41;;;;;;;709.67;657.17;;;;;;;21.22;52.75;101625.38;691499;28;136522;-66
2022/06/12 01:39:11;;;;;;;710.55;659.05;;;;;;;21.21;52.85;101627.31;692885;28;114959;-65
2022/06/12 01:39:38;;;;;;;674.58;628.42;;;;;;;21.22;52.93;101623.50;691291;28;136303;-68
2022/06/12 01:40:07;;;;;;;677.72;634.45;;;;;;;21.23;52.70;101624.31;690010;28;156552;-66
2022/06/12 01:40:33;;;;;;;703.45;656.35;;;;;;;21.23;52.70;101629.81;691116;28;136205;-67
2022/06/12 01:40:59;;;;;;;693.75;647.20;;;;;;;21.23;52.94;101629.81;691101;28;137875;-66
2022/06/12 01:41:27;;;;;;;701.97;654.10;;;;;;;21.22;53.04;101623.50;691245;28;136476;-66
2022/06/12 01:41:52;;;;;;;707.80;659.63;;;;;;;21.25;52.92;101627.69;690246;28;137414;-67
2022/06/12 01:42:20;;;;;;;699.65;653.72;;;;;;;21.25;52.79;101627.69;692950;28;59939;-68
2022/06/12 01:42:50;;;;;;;703.70;657.88;;;;;;;21.24;52.84;101629.59;690175;28;138068;-68
2022/06/12 01:43:17;;;;;;;697.95;652.38;;;;;;;21.23;52.87;101627.06;690481;28;136251;-66
2022/06/12 01:43:45;;;;;;;704.15;657.08;;;;;;;21.23;52.85;101627.06;689306;28;136284;-68
2022/06/12 01:44:11;;;;;;;707.22;658.15;;;;;;;21.21;52.79;101624.56;691306;28;136260;-66
2022/06/12 01:44:39;;;;;;;699.22;649.90;;;;;;;21.21;53.06;101626.47;691080;28;137843;-66
2022/06/12 01:45:12;;;;;;;706.17;654.72;;;;;;;21.20;52.97;101628.34;687178;28;156297;-67
2022/06/12 01:45:39;;;;;;;700.90;650.78;;;;;;;21.19;52.98;101631.34;689682;28;136991;-66
2022/06/12 01:46:05;;;;;;;699.85;651.00;;;;;;;21.20;53.18;101630.28;691597;28;137778;-65
2022/06/12 01:46:31;;;;;;;702.42;652.22;;;;;;;21.18;53.03;101627.75;690055;28;161038;-66
2022/06/12 01:46:57;;;;;;;692.03;641.80;;;;;;;21.15;52.91;101619.97;690394;28;138104;-72
2022/06/12 01:47:24;;;;;;;686.20;635.53;;;;;;;21.16;53.11;101632.66;691382;28;112389;-66
2022/06/12 01:47:54;;;;;;;688.30;638.95;;;;;;;21.13;53.23;101624.00;691394;28;137155;-70
2022/06/12 01:48:28;;;;;;;700.42;649.97;;;;;;;21.13;53.24;101618.50;691675;28;137881;-66
2022/06/12 01:48:56;;;;;;;692.97;643.55;;;;;;;21.13;53.26;101624.84;690649;28;137559;-66
2022/06/12 01:49:22;;;;;;;696.58;646.50;;;;;;;21.09;53.30;101620.88;690680;28;160862;-67
2022/06/12 01:49:49;;;;;;;693.50;644.80;;;;;;;21.12;53.29;101628.66;690186;28;136672;-66
2022/06/12 01:50:14;;;;;;;693.72;645.70;;;;;;;21.12;53.26;101623.16;691516;28;134571;-66
2022/06/12 01:50:41;;;;;;;687.70;639.30;;;;;;;21.11;53.34;101626.97;691790;28;113483;-66
2022/06/12 01:51:10;;;;;;;685.90;637.80;;;;;;;21.10;53.36;101618.94;691783;28;136376;-66
2022/06/12 01:51:35;;;;;;;665.17;620.15;;;;;;;21.09;53.33;101620.88;690761;28;136080;-66
2022/06/12 01:52:03;;;;;;;648.92;605.00;;;;;;;21.09;53.38;101629.09;691972;28;115165;-67
2022/06/12 01:52:30;;;;;;;676.60;629.72;;;;;;;21.06;53.56;101613.94;690119;28;139329;-67
2022/06/12 01:52:57;;;;;;;697.40;644.25;;;;;;;21.05;53.38;101623.25;689596;28;160326;-66
2022/06/12 01:53:25;;;;;;;697.42;643.58;;;;;;;20.99;53.75;101618.66;689905;28;137563;-66
2022/06/12 01:53:59;;;;;;;705.10;652.08;;;;;;;21.00;53.71;101628.56;689981;28;137643;-66
2022/06/12 01:54:25;;;;;;;695.42;642.03;;;;;;;21.02;53.36;101625.59;690377;28;137742;-66
2022/06/12 01:54:50;;;;;;;678.47;632.85;;;;;;;21.00;53.58;101623.09;690419;28;137818;-67
2022/06/12 01:55:15;;;;;;;696.67;647.00;;;;;;;20.99;53.54;101623.31;692566;28;114938;-66
2022/06/12 01:55:44;;;;;;;699.47;648.95;;;;;;;20.97;53.73;101629.03;691665;28;115047;-66
2022/06/12 01:56:14;;;;;;;701.38;650.50;;;;;;;20.97;53.64;101618.03;691636;28;136060;-69